Airfield :
LOGIN :

Register | Disclaimer

   EN    FR    IT 

 










Legend :    VFR   Marginal VFR   IFR   Intensive IFR   Very Intensive IFR
Visi :
Ceiling :
>= 8 km
>= 3000ft
5 to 8 km
1000 to 3000 ft
1500m to 5 km
500 to 1000 ft
800 to 1500m
200 to 500 ft
< 800m
< 200 ft
Symbols :   Thunderstorms  Fog  Heavy snow  Heavy precipitations  Wind > 20 kt
SIGMETs :     Misc.  Thunderstorms  Icing  Turbulence  Mountain Waves  Volcanic Ashes






- Airport Elevation : 645 ft
- IATA code : DLE


LFGJ - Dole Tavaux

CURRENT METAR :
  • 072030Z AUTO 20004KT 160V230 CAVOK 13/04 Q1025 NOSIG

EXPIRED METARs :
  • 072000Z AUTO 27006KT CAVOK 17/05 Q1024 NOSIG
  • 071930Z AUTO 25005KT CAVOK 17/05 Q1024 NOSIG
  • 071900Z AUTO 22007KT CAVOK 14/05 Q1024 NOSIG
  • 071830Z AUTO 36003KT CAVOK 20/02 Q1024 NOSIG
  • 071800Z AUTO 01005KT CAVOK 21/02 Q1024 NOSIG

Expired Forecast.



MET'MAP, your aeronautical weather chart ! - Copyright ORBIFLY December 2007 - Disclaimer

ORBIFLY MET'MAP TEAM :

Programming & Development : Alexandra Zaïnal
Concept & original design : Baudouin d'Aumeries
Assistance for programming : Marc-Olivier Méhu
Technical & hardware support : Manuel Goepfert

Contact : metmap@orbifly.com




SOURCES & CREDITS :

   NOAA